Los Altos, CA (94022)

7:38 AM PDT on April 27, 2017 (GMT -0700)
KCALOSAL1 | | Change Station

Elev 246 ft 37.38 °N, 122.13 °W | Updated 3 minutes ago

Partly Cloudy
Partly Cloudy
49.4 °F
Feels Like 49 °F
N
1.2
Wind Variable Wind from SSE
Gusts 2.1 mph

Today
High -- | Low -- °F
--% Chance of Precip.
Yesterday
High -- | Low -- °F
Precip. -- in
Pressure 30.06 in
Visibility 10.0 miles
Clouds Scattered Clouds 1700 ft
Windchill 49 °F
Dew Point 49 °F
Humidity 99%
Rainfall Not available.
Snow Depth Not available.
6:17 AM 7:54 PM
New Moon, 2% visible
SPECI KNUQ 271423Z 00000KT 10SM SCT017 12/10 A3006 RMK AO2 T01220100
Pressure 30.06 in
Visibility 10.0 miles
Clouds Scattered Clouds 1700 ft
Windchill 49 °F
Dew Point 49 °F
Humidity 99%
Rainfall Not available.
Snow Depth Not available.
6:17 AM 7:54 PM
New Moon, 2% visible
SPECI KNUQ 271423Z 00000KT 10SM SCT017 12/10 A3006 RMK AO2 T01220100

Get Severe Weather Alerts

Thanks for signing up!

Be on the lookout for a verification email in your inbox.

You'll start receiving the daily forecast at 8 AM.

×

10-Day Weather Forecast

Almanac

Astronomy

Apr. 27, 2017 Rise Set
Actual Time
Civil Twilight
Nautical Twilight
Astronomical Twilight
Moon
Length of Visible Light
Length of Day
Tomorrow will be .
, % of the Moon is Illuminated

Today's Extremes

State Highs State Lows

Community

WunderPhotos

WunderBlog® & News

Nearby

Air Quality

  Air Quality AQ Index Pollutant
Not available.

Snow Depth

Station Depth Elevation

Earthquake Activity

City Distance Mag. Time & Date
Minimum magnitude displayed is 2.5.

Coastal Water Temperatures

Place Temperature

Stations

Nearby Weather Stations

Station Location Temp. Windchill Dew Point Humidity Wind Precip. Elev Updated Type
                   

Watches & Warnings

There are currently no watches in effect.